AirNav   Free SoundLink Mini II speaker
 
 396 users online  

0MN0 Winner's Landing Seaplane Base
St Paul Park, Minnesota, USA

GOING TO ST PAUL PARK?


FAA INFORMATION EFFECTIVE 26 MARCH 2020

Location

FAA Identifier: 0MN0
Lat/Long: 44-47-48.8800N 092-59-02.7630W
44-47.814667N 092-59.046050W
44.7969111,-92.9841008
(estimated)
Elevation: 690 ft. / 210 m (estimated)
Variation: 03E (1985)
From city: 5 miles S of ST PAUL PARK, MN
Time zone: UTC -5 (UTC -6 during Standard Time)
Zip code: 55071

Seaplane Base Operations

Seaplane Base use: Private use, PERSONAL USE ONLY.
Activation date: 06/1986
Control tower: no
ARTCC: MINNEAPOLIS CENTER
FSS: PRINCETON FLIGHT SERVICE STATION
Attendance: 
WILL BE USED IN THE WINTER ON THE ICE.
Wind indicator: yes
Segmented circle: no

Seaplane Base Communications

WX AWOS-3 at SGS (4 nm NW): 119.425 (651-457-8120)
WX ASOS at STP (9 nm N): 118.35 (651-312-8888)
WX ASOS at MSP (11 nm NW): 135.35 (612-713-4174)
WX AWOS-3 at 21D (13 nm NE): 120.075 (651-779-5949)
WX AWOS-3 at LVN (15 nm SW): 118.0 (952-469-5850)
WX AWOS-3 at SYN (19 nm S): 119.35 (507-664-3806)

Nearby radio navigation aids

VOR radial/distance  VOR name  Freq  Var
MSPr117/12.3MINNEAPOLIS VOR/DME115.3002E
FGTr034/13.1FARMINGTON VORTAC115.7006E
FCMr094/19.6FLYING CLOUD VOR/DME117.7001E
GEPr136/26.7GOPHER VORTAC117.3006E
FOWr023/39.2HALFWAY VOR/DME111.2002E

 
NDB name  Hdg/Dist  Freq  Var  ID
HOPEY198/4.940003EPPI .--. .--. ..

Seaplane Base Services

Parking: buoy

Runway Information

Runway 9W/27W

Dimensions: 5500 x 700 ft. / 1676 x 213 m
Surface: water
RUNWAY 9W  RUNWAY 27W
Traffic pattern: rightleft
Obstructions: trees, 50 ft. from runway
ALSO PLINE.
road, 15 ft. from runway
ALSO PLINE.

Seaplane Base Ownership and Management from official FAA records

Ownership: Privately-owned
Owner: L. THOMAS NORTON
10760 ISLAND DR
ST PAUL PARK, MN 55071
Phone (651) 459-1423
CELL: 651-592-5546
Manager: L. THOMAS NORTON
10760 ISLAND DR
ST PAUL PARK, MN 55071
Phone (651) 459-1423

Seaplane Base Operational Statistics

Aircraft based on the field: 1
Single engine airplanes: 1
    

Additional Remarks

UNICOM FREQ 122.95 IS AT ST PAUL DOWNTOWN HOLMAN FLD.
FOR CD CTC MINNEAPOLIS ARTCC AT 651-463-5588.

Instrument Procedures

There are no published instrument procedures at 0MN0.

Some nearby airports with instrument procedures:

KSGS - South St Paul Municipal Airport-Richard E Fleming Field (4 nm NW)
KSTP - St Paul Downtown Airport Holman Field (9 nm N)
KMSP - Minneapolis-St Paul International/Wold-Chamberlain Airport (11 nm NW)
21D - Lake Elmo Airport (13 nm NE)
KLVN - Airlake Airport (15 nm SW)
 
Loc | Ops | Rwys | IFR | FBO | Links
Com | Nav | Svcs | Stats | Notes
Area around 0MN0 (Winner's Landing Seaplane Base)
 
Road maps at: MapQuest Bing Google
 
Aerial photo
No photo
 
Sectional chart

 
Airport distance calculator
Flying to Winner's Landing Seaplane Base? Find the distance to fly.

From to 0MN0

Sunrise and sunset
Times for 10-Apr-2020
 Local
(UTC-5)
 Zulu
(UTC)
Morning civil twilight06:0511:05
Sunrise06:3611:36
Sunset19:5100:51
Evening civil twilight20:2101:21

Current date and time
Zulu (UTC)  10-Apr-2020 06:28:31
Local (UTC-5)  10-Apr-2020 01:28:31
 
METAR
KSGS 
8nm NW 
100615Z AUTO 31011KT 10SM CLR 00/M06 A3008 RMK AO2 T00001065
KSTP 
9nm N 
100553Z AUTO 31013KT 10SM CLR 00/M07 A3009 RMK AO2 SLP194 T00001067 10039 20000 400560000 53009
KMSP 
12nm NW 
100553Z 32012G22KT 10SM CLR M01/M07 A3008 RMK AO2 SLP197 T10061072 10033 21011 400561011 53007
K21D 
13nm NE 
100615Z AUTO 31008KT 10SM SCT037 M01/M06 A3007 RMK AO2 TSNOSNO
KLVN 
15nm SW 
100616Z AUTO 30011KT 10SM CLR M01/M04 A3009 RMK AO2
KSYN 
19nm S 
100616Z AUTO 29010KT 10SM CLR M01/M05 A3007 RMK AO2 T10141051
TAF
KMSP 
12nm NW 
100520Z 1006/1112 31009KT P6SM SKC FM101600 27007KT P6SM SCT200 FM102200 23006KT P6SM SCT200 FM110200 VRB03KT P6SM BKN150
NOTAMs
Click for the latest NOTAMs
NOTAMs are issued by the DoD/FAA and will open in a separate window not controlled by AirNav.

 

 
 

Would you like to see your business listed on this page?

 If your business provides an interesting product or service to pilots, flight crews, aircraft, or users of the Winner's Landing Seaplane Base, you should consider listing it here.  To start the listing process, click on the button below
 
Add a business
 

Other Pages about Winner's Landing Seaplane Base

Update a link
 
Copyright © AirNav, LLC. All rights reserved. Privacy Policy  Contact